Time;durP1;ratioP1;P1;durP2;ratioP2;P2;SDS_P1;SDS_P2;PMS_P1;PMS_P2;Temp;Humidity;BMP_temperature;BMP_pressure;BME280_temperature;BME280_humidity;BME280_pressure;Samples;Min_cycle;Max_cycle;Signal;HPM_P1;HPM_P2
2022/02/16 00:00:21;;;;;;;;;;;;;;;-4.21;100.00;99608.70;1728309;81;20224;-70
2022/02/16 00:02:47;;;;;;;;;;;;;;;-4.24;100.00;99619.48;1712410;81;21087;-71
2022/02/16 00:05:16;;;;;;;;;;;;;;;-4.26;100.00;99616.19;1713491;81;20163;-69
2022/02/16 00:07:43;;;;;;;;;;;;;;;-4.28;100.00;99612.92;1723278;81;20143;-70
2022/02/16 00:10:13;;;;;;;;;;;;;;;-4.32;100.00;99605.36;1720600;82;20127;-70
2022/02/16 00:12:40;;;;;;;;;;;;;;;-4.29;100.00;99608.64;1725696;83;20399;-70
2022/02/16 00:15:07;;;;;;;;;;;;;;;-4.28;100.00;99606.38;1718234;82;21978;-70
2022/02/16 00:17:36;;;;;;;;;;;;;;;-4.33;100.00;99602.41;1708096;83;20211;-71
2022/02/16 00:20:04;;;;;;;;;;;;;;;-4.39;100.00;99606.95;1725598;81;20087;-71
2022/02/16 00:22:31;;;;;;;;;;;;;;;-4.41;100.00;99602.38;1711057;82;20243;-70
2022/02/16 00:24:57;;;;;;;;;;;;;;;-4.41;100.00;99610.24;1722433;81;20166;-70
2022/02/16 00:27:24;;;;;;;;;;;;;;;-4.47;100.00;99600.38;1711163;81;21153;-70
2022/02/16 00:29:51;;;;;;;;;;;;;;;-4.55;100.00;99602.95;1734999;81;20449;-70
2022/02/16 00:32:18;;;;;;;;;;;;;;;-4.64;100.00;99597.33;1735351;82;20167;-69
2022/02/16 00:34:44;;;;;;;;;;;;;;;-4.72;100.00;99597.28;1737203;81;20151;-70
2022/02/16 00:37:11;;;;;;;;;;;;;;;-4.78;100.00;99589.08;1745663;81;20173;-69
2022/02/16 00:39:37;;;;;;;;;;;;;;;-4.74;100.00;99587.77;1741765;81;21126;-70
2022/02/16 00:42:28;;;;;;;;;;;;;;;-4.70;100.00;99588.77;1744684;80;20137;-69
2022/02/16 00:44:54;;;;;;;;;;;;;;;-4.72;100.00;99585.01;1643495;86;20099;-70
2022/02/16 00:47:21;;;;;;;;;;;;;;;-4.69;100.00;99587.80;1629199;88;20194;-70
2022/02/16 00:49:48;;;;;;;;;;;;;;;-4.64;100.00;99588.16;1625053;88;20461;-70
2022/02/16 00:52:23;;;;;;;;;;;;;;;-4.62;100.00;99575.24;1651074;86;21744;-69
2022/02/16 00:54:52;;;;;;;;;;;;;;;-4.59;100.00;99573.61;1650868;86;20150;-70
2022/02/16 00:57:19;;;;;;;;;;;;;;;-4.56;100.00;99573.33;1651292;87;20106;-70
2022/02/16 00:59:48;;;;;;;;;;;;;;;-4.53;100.00;99573.00;1651212;87;20125;-69
2022/02/16 01:02:18;;;;;;;;;;;;;;;-4.55;100.00;99567.09;1651155;87;20468;-69
2022/02/16 01:04:45;;;;;;;;;;;;;;;-4.53;100.00;99555.16;1651359;85;21068;-70
2022/02/16 01:07:12;;;;;;;;;;;;;;;-4.51;100.00;99558.42;1632470;85;20126;-70
2022/02/16 01:09:41;;;;;;;;;;;;;;;-4.48;100.00;99552.89;1651407;87;20161;-71
2022/02/16 01:12:08;;;;;;;;;;;;;;;-4.49;100.00;99556.47;1651572;87;20511;-70
2022/02/16 01:14:35;;;;;;;;;;;;;;;-4.53;100.00;99556.47;1651342;85;20444;-70
2022/02/16 01:17:10;;;;;;;;;;;;;;;-4.52;100.00;99550.24;1648631;86;21168;-70
2022/02/16 01:19:38;;;;;;;;;;;;;;;-4.52;100.00;99545.00;1647328;86;20122;-69
2022/02/16 01:22:06;;;;;;;;;;;;;;;-4.54;100.00;99541.71;1651277;87;20158;-70
2022/02/16 01:24:33;;;;;;;;;;;;;;;-4.51;100.00;99538.77;1645827;85;20428;-70
2022/02/16 01:27:03;;;;;;;;;;;;;;;-4.54;100.00;99537.29;1645290;87;20106;-71
2022/02/16 01:29:30;;;;;;;;;;;;;;;-4.58;100.00;99532.05;1645138;87;21154;-71
2022/02/16 01:32:00;;;;;;;;;;;;;;;-4.56;100.00;99528.79;1645272;86;20440;-71
2022/02/16 01:34:29;;;;;;;;;;;;;;;-4.52;100.00;99525.36;1650930;87;20133;-70
2022/02/16 01:36:55;;;;;;;;;;;;;;;-4.54;100.00;99524.19;1651035;87;20094;-70
2022/02/16 01:39:22;;;;;;;;;;;;;;;-4.58;100.00;99516.33;1651462;87;20175;-71
2022/02/16 01:41:49;;;;;;;;;;;;;;;-4.60;100.00;99514.35;1651615;87;21137;-71
2022/02/16 01:44:21;;;;;;;;;;;;;;;-4.60;100.00;99507.80;1648072;85;20142;-70
2022/02/16 01:46:53;;;;;;;;;;;;;;;-4.58;100.00;99507.16;1646062;85;20138;-70
2022/02/16 01:49:22;;;;;;;;;;;;;;;-4.55;100.00;99508.16;1646493;85;20141;-69
2022/02/16 01:51:48;;;;;;;;;;;;;;;-4.59;100.00;99509.93;1646614;85;20189;-68
2022/02/16 01:54:15;;;;;;;;;;;;;;;-4.68;100.00;99514.30;1646561;86;21122;-70
2022/02/16 01:56:44;;;;;;;;;;;;;;;-4.65;100.00;99510.08;1650374;86;20162;-70
2022/02/16 01:59:14;;;;;;;;;;;;;;;-4.71;100.00;99509.38;1646860;86;20159;-70
2022/02/16 02:01:59;;;;;;;;;;;;;;;-4.72;100.00;99510.38;1646973;85;20095;-70
2022/02/16 02:04:25;;;;;;;;;;;;;;;-4.77;100.00;99513.45;1646676;85;20119;-69
2022/02/16 02:06:55;;;;;;;;;;;;;;;-4.82;100.00;99516.21;1646329;86;21863;-69
2022/02/16 02:09:22;;;;;;;;;;;;;;;-4.84;100.00;99519.47;1646900;87;20448;-69
2022/02/16 02:11:49;;;;;;;;;;;;;;;-4.84;100.00;99516.85;1646979;87;20091;-70
2022/02/16 02:14:16;;;;;;;;;;;;;;;-4.89;100.00;99516.50;1646896;87;20090;-70
2022/02/16 02:16:57;;;;;;;;;;;;;;;-4.88;100.00;99509.78;1644319;86;20202;-70
2022/02/16 02:19:24;;;;;;;;;;;;;;;-4.88;100.00;99502.42;1645061;87;21165;-71
2022/02/16 02:21:53;;;;;;;;;;;;;;;-4.88;100.00;99495.88;1645959;85;20094;-70
2022/02/16 02:24:19;;;;;;;;;;;;;;;-4.89;100.00;99495.55;1647159;87;20131;-72
2022/02/16 02:26:46;;;;;;;;;;;;;;;-4.93;100.00;99491.59;1646932;87;20102;-70
2022/02/16 02:29:14;;;;;;;;;;;;;;;-4.88;100.00;99499.80;1646855;86;20127;-70
2022/02/16 02:31:43;;;;;;;;;;;;;;;-4.85;100.00;99496.41;1646381;87;21130;-70
2022/02/16 02:34:09;;;;;;;;;;;;;;;-4.88;100.00;99495.38;1647105;87;20119;-70
2022/02/16 02:36:35;;;;;;;;;;;;;;;-4.92;100.00;99488.83;1646952;87;20127;-70
2022/02/16 02:39:03;;;;;;;;;;;;;;;-4.88;100.00;99491.45;1647195;87;20129;-69
2022/02/16 02:41:29;;;;;;;;;;;;;;;-4.85;100.00;99488.55;1647010;86;20131;-69
2022/02/16 02:43:59;;;;;;;;;;;;;;;-4.80;100.00;99488.05;1648773;86;20620;-69
2022/02/16 02:46:26;;;;;;;;;;;;;;;-4.80;100.00;99479.73;1651390;87;20090;-69
2022/02/16 02:48:55;;;;;;;;;;;;;;;-4.86;100.00;99471.17;1632598;87;20121;-69
2022/02/16 02:51:22;;;;;;;;;;;;;;;-4.86;100.00;99468.55;1651424;87;20448;-70
2022/02/16 02:53:49;;;;;;;;;;;;;;;-4.84;100.00;99471.03;1651423;85;20159;-69
2022/02/16 02:56:16;;;;;;;;;;;;;;;-4.88;100.00;99469.20;1651520;87;21108;-70
2022/02/16 02:58:43;;;;;;;;;;;;;;;-4.87;100.00;99463.00;1651317;86;20094;-70
2022/02/16 03:01:09;;;;;;;;;;;;;;;-4.90;100.00;99462.48;1651349;85;20090;-69
2022/02/16 03:03:38;;;;;;;;;;;;;;;-4.96;100.00;99462.13;1651387;87;20150;-70
2022/02/16 03:06:07;;;;;;;;;;;;;;;-4.93;100.00;99454.94;1651588;87;20086;-70
2022/02/16 03:08:34;;;;;;;;;;;;;;;-4.92;100.00;99456.57;1651487;87;21153;-70
2022/02/16 03:11:01;;;;;;;;;;;;;;;-4.99;100.00;99453.28;1650884;87;20165;-69
2022/02/16 03:13:29;;;;;;;;;;;;;;;-5.01;100.00;99451.80;1651053;86;20158;-69
2022/02/16 03:16:00;;;;;;;;;;;;;;;-4.96;100.00;99455.58;1651097;85;20150;-69
2022/02/16 03:18:27;;;;;;;;;;;;;;;-4.84;100.00;99461.38;1651247;85;20169;-70
2022/02/16 03:20:54;;;;;;;;;;;;;;;-4.77;100.00;99464.19;1650077;87;21838;-69
2022/02/16 03:23:21;;;;;;;;;;;;;;;-4.73;100.00;99464.19;1651607;87;20118;-70
2022/02/16 03:25:48;;;;;;;;;;;;;;;-4.73;100.00;99462.88;1662476;85;20301;-70
2022/02/16 03:28:15;;;;;;;;;;;;;;;-4.71;100.00;99462.73;1684844;83;20111;-70
2022/02/16 03:30:44;;;;;;;;;;;;;;;-4.71;100.00;99460.92;1682005;84;20076;-69
2022/02/16 03:33:11;;;;;;;;;;;;;;;-4.61;100.00;99460.80;1676282;85;21149;-69
2022/02/16 03:35:38;;;;;;;;;;;;;;;-4.60;100.00;99455.42;1676341;85;20430;-70
2022/02/16 03:38:07;;;;;;;;;;;;;;;-4.53;100.00;99452.50;1665160;85;20082;-70
2022/02/16 03:40:35;;;;;;;;;;;;;;;-4.48;100.00;99450.72;1651501;87;20090;-70
2022/02/16 03:43:03;;;;;;;;;;;;;;;-4.48;100.00;99437.62;1651485;87;20102;-69
2022/02/16 03:45:29;;;;;;;;;;;;;;;-4.39;100.00;99443.19;1647439;86;21787;-70
2022/02/16 03:47:57;;;;;;;;;;;;;;;-4.30;100.00;99447.97;1647138;85;20125;-70
2022/02/16 03:50:25;;;;;;;;;;;;;;;-4.28;100.00;99455.69;1647263;87;20087;-70
2022/02/16 03:52:54;;;;;;;;;;;;;;;-4.27;100.00;99454.69;1646822;87;20125;-69
2022/02/16 03:55:23;;;;;;;;;;;;;;;-4.24;100.00;99450.43;1647013;86;20122;-69
2022/02/16 03:57:50;;;;;;;;;;;;;;;-4.22;100.00;99461.58;1646843;87;21148;-69
2022/02/16 04:00:18;;;;;;;;;;;;;;;-4.21;100.00;99461.42;1646805;86;20130;-69
2022/02/16 04:02:47;;;;;;;;;;;;;;;-4.18;100.00;99461.59;1647034;87;20436;-69
2022/02/16 04:05:14;;;;;;;;;;;;;;;-4.11;100.00;99468.66;1620745;88;20109;-70
2022/02/16 04:07:41;;;;;;;;;;;;;;;-4.07;100.00;99464.39;1674639;85;20136;-69
2022/02/16 04:10:09;;;;;;;;;;;;;;;-4.01;100.00;99476.37;1672816;85;21132;-69
2022/02/16 04:12:38;;;;;;;;;;;;;;;-3.96;100.00;99471.95;1674593;85;20183;-69
2022/02/16 04:15:05;;;;;;;;;;;;;;;-3.89;100.00;99466.39;1661366;84;20102;-69
2022/02/16 04:17:33;;;;;;;;;;;;;;;-3.81;100.00;99462.45;1673015;85;20151;-69
2022/02/16 04:20:01;;;;;;;;;;;;;;;-3.75;100.00;99465.75;1640546;84;20098;-69
2022/02/16 04:22:29;;;;;;;;;;;;;;;-3.71;100.00;99464.92;1649698;84;21148;-70
2022/02/16 04:24:55;;;;;;;;;;;;;;;-3.67;100.00;99464.43;1650481;84;20078;-69
2022/02/16 04:27:22;;;;;;;;;;;;;;;-3.65;100.00;99466.87;1658039;85;20150;-70
2022/02/16 04:29:49;;;;;;;;;;;;;;;-3.61;100.00;99470.00;1653998;85;20576;-70
2022/02/16 04:32:15;;;;;;;;;;;;;;;-3.62;100.00;99453.45;1650736;86;20151;-70
2022/02/16 04:34:41;;;;;;;;;;;;;;;-3.58;100.00;99461.80;1646591;87;22452;-70
2022/02/16 04:37:08;;;;;;;;;;;;;;;-3.56;100.00;99462.45;1650183;85;20126;-69
2022/02/16 04:39:35;;;;;;;;;;;;;;;-3.57;100.00;99458.20;1646779;86;20102;-71
2022/02/16 04:42:05;;;;;;;;;;;;;;;-3.57;100.00;99453.77;1646508;87;20102;-69
2022/02/16 04:44:32;;;;;;;;;;;;;;;-3.58;100.00;99460.48;1648358;86;20452;-69
2022/02/16 04:47:03;;;;;;;;;;;;;;;-3.57;100.00;99462.95;1647727;85;21836;-69
2022/02/16 04:49:31;;;;;;;;;;;;;;;-3.59;100.00;99466.73;1650922;85;20090;-70
2022/02/16 04:51:58;;;;;;;;;;;;;;;-3.59;100.00;99462.30;1651162;87;20122;-69
2022/02/16 04:54:25;;;;;;;;;;;;;;;-3.58;100.00;99461.80;1650943;87;20484;-69
2022/02/16 04:56:51;;;;;;;;;;;;;;;-3.59;100.00;99466.23;1651086;87;20175;-70
2022/02/16 04:59:19;;;;;;;;;;;;;;;-3.56;100.00;99477.70;1650246;85;21151;-69
2022/02/16 05:01:45;;;;;;;;;;;;;;;-3.55;100.00;99476.73;1650903;87;20137;-70
2022/02/16 05:04:12;;;;;;;;;;;;;;;-3.52;100.00;99467.21;1650890;85;20388;-70
2022/02/16 05:06:41;;;;;;;;;;;;;;;-3.50;100.00;99465.25;1650591;87;20621;-73
2022/02/16 05:09:09;;;;;;;;;;;;;;;-3.47;100.00;99470.16;1651080;87;20516;-69
2022/02/16 05:11:36;;;;;;;;;;;;;;;-3.43;100.00;99471.13;1651415;87;21145;-69
2022/02/16 05:14:08;;;;;;;;;;;;;;;-3.42;100.00;99467.05;1651286;85;20737;-69
2022/02/16 05:16:36;;;;;;;;;;;;;;;-3.39;100.00;99474.58;1651269;87;20129;-70
2022/02/16 05:19:03;;;;;;;;;;;;;;;-3.36;100.00;99473.42;1651312;87;20126;-70
2022/02/16 05:21:32;;;;;;;;;;;;;;;-3.33;100.00;99475.71;1651185;86;20082;-69
2022/02/16 05:24:01;;;;;;;;;;;;;;;-3.30;100.00;99477.53;1651441;87;21138;-69
2022/02/16 05:26:29;;;;;;;;;;;;;;;-3.29;100.00;99472.59;1651296;87;20129;-68
2022/02/16 05:28:56;;;;;;;;;;;;;;;-3.25;100.00;99475.72;1651161;85;20123;-69
2022/02/16 05:31:23;;;;;;;;;;;;;;;-3.24;100.00;99467.66;1651196;87;20134;-69
2022/02/16 05:33:50;;;;;;;;;;;;;;;-3.21;100.00;99467.81;1651599;87;20078;-69
2022/02/16 05:36:19;;;;;;;;;;;;;;;-3.19;100.00;99472.91;1651297;87;21155;-69
2022/02/16 05:38:45;;;;;;;;;;;;;;;-3.15;100.00;99476.86;1651291;87;20131;-70
2022/02/16 05:41:12;;;;;;;;;;;;;;;-3.14;100.00;99475.36;1651074;87;20145;-69
2022/02/16 05:43:48;;;;;;;;;;;;;;;-3.12;100.00;99469.95;1647943;85;20431;-69
2022/02/16 05:46:15;;;;;;;;;;;;;;;-3.10;100.00;99471.92;1634057;87;20150;-68
2022/02/16 05:48:45;;;;;;;;;;;;;;;-3.08;100.00;99460.26;1646535;87;20090;-69
2022/02/16 05:51:12;;;;;;;;;;;;;;;-3.06;100.00;99453.04;1646961;87;20416;-68
2022/02/16 05:53:39;;;;;;;;;;;;;;;-3.07;100.00;99452.70;1646778;87;20142;-67
2022/02/16 05:56:06;;;;;;;;;;;;;;;-3.04;100.00;99458.95;1646886;87;20188;-69
2022/02/16 05:58:33;;;;;;;;;;;;;;;-3.01;100.00;99452.54;1621864;88;20162;-68
2022/02/16 06:01:00;;;;;;;;;;;;;;;-2.98;100.00;99452.19;1636360;87;21135;-68
2022/02/16 06:03:31;;;;;;;;;;;;;;;-2.94;100.00;99446.09;1649339;86;20091;-68
2022/02/16 06:06:02;;;;;;;;;;;;;;;-2.92;100.00;99450.19;1646622;85;20103;-67
2022/02/16 06:08:31;;;;;;;;;;;;;;;-2.88;100.00;99453.31;1644809;86;20176;-68
2022/02/16 06:11:00;;;;;;;;;;;;;;;-2.86;100.00;99447.41;1635520;87;20140;-69
2022/02/16 06:13:26;;;;;;;;;;;;;;;-2.82;100.00;99441.64;1636647;86;22008;-69
2022/02/16 06:15:55;;;;;;;;;;;;;;;-2.75;100.00;99440.95;1640288;85;20099;-69
2022/02/16 06:18:23;;;;;;;;;;;;;;;-2.70;100.00;99448.63;1641751;87;20094;-69
2022/02/16 06:20:51;;;;;;;;;;;;;;;-2.66;100.00;99439.43;1644363;85;20130;-70
2022/02/16 06:23:18;;;;;;;;;;;;;;;-2.59;100.00;99444.83;1654480;85;20162;-69
2022/02/16 06:25:50;;;;;;;;;;;;;;;-2.54;100.00;99448.26;1650129;84;21139;-69
2022/02/16 06:28:17;;;;;;;;;;;;;;;-2.50;100.00;99446.44;1632668;85;20181;-69
2022/02/16 06:30:45;;;;;;;;;;;;;;;-2.44;100.00;99448.36;1634124;86;20171;-72
2022/02/16 06:33:15;;;;;;;;;;;;;;;-2.37;100.00;99453.25;1632629;85;20158;-68
2022/02/16 06:35:47;;;;;;;;;;;;;;;-2.33;100.00;99454.22;1620107;88;20545;-70
2022/02/16 06:38:15;;;;;;;;;;;;;;;-2.30;100.00;99456.02;1601408;87;21044;-69
2022/02/16 06:40:42;;;;;;;;;;;;;;;-2.25;100.00;99447.11;1629693;86;20135;-70
2022/02/16 06:43:09;;;;;;;;;;;;;;;-2.21;100.00;99447.58;1640838;86;20231;-68
2022/02/16 06:45:36;;;;;;;;;;;;;;;-2.17;100.00;99453.63;1623409;86;20214;-70
2022/02/16 06:48:05;;;;;;;;;;;;;;;-2.16;100.00;99447.87;1623767;88;20150;-68
2022/02/16 06:50:32;;;;;;;;;;;;;;;-2.14;100.00;99438.00;1625212;88;21125;-68
2022/02/16 06:53:01;;;;;;;;;;;;;;;-2.11;100.00;99431.57;1650872;86;20163;-72
2022/02/16 06:55:28;;;;;;;;;;;;;;;-2.08;100.00;99426.80;1677385;85;20207;-69
2022/02/16 06:57:57;;;;;;;;;;;;;;;-2.02;100.00;99430.02;1634549;87;20247;-67
2022/02/16 07:00:25;;;;;;;;;;;;;;;-1.98;100.00;99427.38;1625112;88;20124;-68
2022/02/16 07:02:51;;;;;;;;;;;;;;;-1.93;100.00;99418.96;1638496;87;21171;-69
2022/02/16 07:05:23;;;;;;;;;;;;;;;-1.92;100.00;99415.32;1652589;86;20318;-71
2022/02/16 07:07:50;;;;;;;;;;;;;;;-1.89;100.00;99412.84;1644961;87;20236;-68
2022/02/16 07:10:16;;;;;;;;;;;;;;;-1.83;100.00;99418.72;1605084;89;20163;-70
2022/02/16 07:12:43;;;;;;;;;;;;;;;-1.78;100.00;99413.75;1634630;87;20161;-70
2022/02/16 07:15:13;;;;;;;;;;;;;;;-1.77;100.00;99399.08;1583018;89;21819;-70
2022/02/16 07:17:41;;;;;;;;;;;;;;;-1.75;100.00;99410.75;1623859;88;20150;-69
2022/02/16 07:20:12;;;;;;;;;;;;;;;-1.72;100.00;99404.63;1598741;87;20167;-69
2022/02/16 07:22:48;;;;;;;;;;;;;;;-1.67;100.00;99394.88;1644868;86;20151;-69
2022/02/16 07:25:17;;;;;;;;;;;;;;;-1.60;100.00;99406.33;1557685;90;20490;-70
2022/02/16 07:27:45;;;;;;;;;;;;;;;-1.51;100.00;99399.19;1531542;91;21184;-68
2022/02/16 07:30:15;;;;;;;;;;;;;;;-1.44;100.00;99391.41;1563794;90;20191;-69
2022/02/16 07:32:45;;;;;;;;;;;;;;;-1.37;100.00;99388.34;1574853;89;20229;-67
2022/02/16 07:35:14;;;;;;;;;;;;;;;-1.32;100.00;99397.86;1584109;90;20560;-67
2022/02/16 07:37:44;;;;;;;;;;;;;;;-1.26;100.00;99406.84;1552688;90;20156;-69
2022/02/16 07:40:13;;;;;;;;;;;;;;;-1.28;100.00;99404.38;1566732;90;20274;-68
2022/02/16 07:42:41;;;;;;;;;;;;;;;-1.22;100.00;99407.63;1566327;91;20265;-68
2022/02/16 07:45:26;;;;;;;;;;;;;;;-1.21;100.00;99401.34;1562668;91;20199;-68
2022/02/16 07:47:52;;;;;;;;;;;;;;;-1.15;100.00;99407.22;1553333;92;20236;-67
2022/02/16 07:50:19;;;;;;;;;;;;;;;-1.10;100.00;99401.41;1555027;91;20184;-69
2022/02/16 07:52:48;;;;;;;;;;;;;;;-1.06;100.00;99404.48;1587728;90;21159;-67
2022/02/16 07:55:20;;;;;;;;;;;;;;;-1.04;100.00;99406.44;1591908;90;20175;-69
2022/02/16 07:57:46;;;;;;;;;;;;;;;-0.96;100.00;99401.88;1562913;92;20158;-69
2022/02/16 08:00:14;;;;;;;;;;;;;;;-0.88;100.00;99411.53;1537618;93;20156;-67
2022/02/16 08:02:46;;;;;;;;;;;;;;;-0.84;100.00;99411.97;1537420;93;20167;-67
2022/02/16 08:05:15;;;;;;;;;;;;;;;-0.82;100.00;99413.42;1595296;88;21129;-67
2022/02/16 08:07:43;;;;;;;;;;;;;;;-0.80;100.00;99410.61;1573154;90;20624;-67
2022/02/16 08:10:10;;;;;;;;;;;;;;;-0.79;100.00;99410.41;1552698;91;20163;-66
2022/02/16 08:12:52;;;;;;;;;;;;;;;-0.78;100.00;99413.38;1547161;91;20166;-67
2022/02/16 08:15:20;;;;;;;;;;;;;;;-0.73;100.00;99403.10;1597958;89;20215;-67
2022/02/16 08:17:48;;;;;;;;;;;;;;;-0.73;100.00;99407.05;1575918;90;21244;-66
2022/02/16 08:20:15;;;;;;;;;;;;;;;-0.73;100.00;99411.52;1567918;90;20495;-66
2022/02/16 08:22:46;;;;;;;;;;;;;;;-0.70;100.00;99403.23;1627352;87;20165;-66
2022/02/16 08:25:13;;;;;;;;;;;;;;;-0.69;100.00;99396.95;1620302;87;20138;-66
2022/02/16 08:27:48;;;;;;;;;;;;;;;-0.68;100.00;99388.05;1601128;87;20109;-66
2022/02/16 08:30:16;;;;;;;;;;;;;;;-0.69;100.00;99388.53;1634274;87;21934;-66
2022/02/16 08:32:45;;;;;;;;;;;;;;;-0.68;100.00;99384.10;1634230;88;20148;-65
2022/02/16 08:35:14;;;;;;;;;;;;;;;-0.68;100.00;99383.59;1634435;87;20180;-66
2022/02/16 08:37:41;;;;;;;;;;;;;;;-0.67;100.00;99383.09;1634272;86;20178;-66
2022/02/16 08:40:10;;;;;;;;;;;;;;;-0.66;100.00;99389.50;1634343;88;20151;-66
2022/02/16 08:42:37;;;;;;;;;;;;;;;-0.65;100.00;99381.90;1634228;86;21822;-66
2022/02/16 08:45:05;;;;;;;;;;;;;;;-0.63;100.00;99372.50;1633421;88;20148;-68
2022/02/16 08:47:31;;;;;;;;;;;;;;;-0.59;100.00;99375.06;1627036;88;20154;-66
2022/02/16 08:49:57;;;;;;;;;;;;;;;-0.50;100.00;99375.27;1626876;88;20125;-66
2022/02/16 08:52:25;;;;;;;;;;;;;;;-0.38;100.00;99384.02;1626862;86;20161;-66
2022/02/16 08:54:51;;;;;;;;;;;;;;;-0.31;100.00;99380.45;1626978;88;21169;-67
2022/02/16 08:57:19;;;;;;;;;;;;;;;-0.32;100.00;99372.23;1626511;86;20183;-68
2022/02/16 08:59:46;;;;;;;;;;;;;;;-0.35;100.00;99375.73;1626637;88;20211;-68
2022/02/16 09:02:13;;;;;;;;;;;;;;;-0.30;100.00;99379.43;1626845;88;20104;-67
2022/02/16 09:04:39;;;;;;;;;;;;;;;-0.24;100.00;99381.33;1627022;88;20143;-67
2022/02/16 09:09:51;;;;;;;;;;;;;;;-0.24;100.00;99379.20;1626858;88;20458;-68
2022/02/16 09:12:17;;;;;;;;;;;;;;;-0.25;100.00;99378.87;1605807;88;20104;-67
2022/02/16 09:14:47;;;;;;;;;;;;;;;-0.26;100.00;99378.06;1603883;88;20156;-66
2022/02/16 09:17:14;;;;;;;;;;;;;;;-0.26;100.00;99368.02;1611649;87;20182;-66
2022/02/16 09:19:40;;;;;;;;;;;;;;;-0.25;100.00;99361.22;1612814;88;21163;-66
2022/02/16 09:22:08;;;;;;;;;;;;;;;-0.26;100.00;99362.23;1616911;88;20132;-68
2022/02/16 09:24:35;;;;;;;;;;;;;;;-0.30;100.00;99375.47;1625649;88;20197;-67
2022/02/16 09:27:02;;;;;;;;;;;;;;;-0.34;100.00;99370.28;1630236;86;20185;-68
2022/02/16 09:29:28;;;;;;;;;;;;;;;-0.28;100.00;99364.23;1668763;86;20109;-67
2022/02/16 09:31:55;;;;;;;;;;;;;;;-0.25;100.00;99365.68;1668561;86;21189;-66
2022/02/16 09:34:21;;;;;;;;;;;;;;;-0.26;100.00;99354.32;1636172;86;20136;-67
2022/02/16 09:36:48;;;;;;;;;;;;;;;-0.28;100.00;99365.55;1625652;88;20350;-66
2022/02/16 09:39:15;;;;;;;;;;;;;;;-0.30;100.00;99354.88;1625595;88;20112;-67
2022/02/16 09:41:44;;;;;;;;;;;;;;;-0.28;100.00;99363.42;1625346;88;20148;-67
2022/02/16 09:44:14;;;;;;;;;;;;;;;-0.24;100.00;99358.10;1625564;88;21058;-67
2022/02/16 09:46:41;;;;;;;;;;;;;;;-0.18;100.00;99349.92;1624354;87;20152;-66
2022/02/16 09:49:10;;;;;;;;;;;;;;;-0.10;100.00;99336.12;1623685;88;20144;-66
2022/02/16 09:51:38;;;;;;;;;;;;;;;-0.08;100.00;99333.27;1623667;88;20101;-67
2022/02/16 09:54:05;;;;;;;;;;;;;;;-0.25;100.00;99328.24;1623519;88;20199;-67
2022/02/16 09:56:32;;;;;;;;;;;;;;;-0.23;100.00;99327.56;1642363;87;21113;-67
2022/02/16 09:59:00;;;;;;;;;;;;;;;-0.24;100.00;99324.63;1642060;87;20134;-67
2022/02/16 10:01:27;;;;;;;;;;;;;;;-0.27;100.00;99325.01;1642161;86;20151;-68
2022/02/16 10:04:04;;;;;;;;;;;;;;;-0.20;100.00;99326.36;1642114;87;20134;-67
2022/02/16 10:06:44;;;;;;;;;;;;;;;-0.19;100.00;99321.92;1642016;85;20159;-65
2022/02/16 10:09:31;;;;;;;;;;;;;;;-0.20;100.00;99311.05;1641137;86;21166;-66
2022/02/16 10:12:00;;;;;;;;;;;;;;;-0.19;100.00;99303.46;1664222;84;20099;-67
2022/02/16 10:14:29;;;;;;;;;;;;;;;-0.21;100.00;99310.23;1632509;86;20582;-65
2022/02/16 10:16:56;;;;;;;;;;;;;;;-0.16;100.00;99301.25;1599545;89;20171;-66
2022/02/16 10:19:22;;;;;;;;;;;;;;;-0.13;100.00;99285.54;1620160;88;20185;-67
2022/02/16 10:22:08;;;;;;;;;;;;;;;-0.11;100.00;99290.94;1623645;88;21182;-67
2022/02/16 10:24:35;;;;;;;;;;;;;;;-0.08;100.00;99295.82;1624895;88;20178;-66
2022/02/16 10:27:03;;;;;;;;;;;;;;;0.05;100.00;99292.97;1623414;88;20146;-67
2022/02/16 10:29:35;;;;;;;;;;;;;;;0.04;100.00;99292.67;1646192;87;20082;-66
2022/02/16 10:32:02;;;;;;;;;;;;;;;0.06;100.00;99299.90;1646139;87;20182;-66
2022/02/16 10:34:49;;;;;;;;;;;;;;;0.04;100.00;99290.84;1646463;87;21156;-67
2022/02/16 10:37:16;;;;;;;;;;;;;;;0.10;100.00;99276.05;1640506;87;20129;-67
2022/02/16 10:40:04;;;;;;;;;;;;;;;0.17;100.00;99268.52;1620605;88;20108;-66
2022/02/16 10:42:33;;;;;;;;;;;;;;;0.21;100.00;99258.38;1620861;88;20458;-67
2022/02/16 10:45:11;;;;;;;;;;;;;;;0.23;100.00;99256.88;1620767;88;20221;-68
2022/02/16 10:48:03;;;;;;;;;;;;;;;0.28;100.00;99243.39;1624221;86;21178;-66
2022/02/16 10:50:41;;;;;;;;;;;;;;;0.31;100.00;99243.00;1620659;88;20112;-67
2022/02/16 10:53:09;;;;;;;;;;;;;;;0.24;100.00;99241.33;1620384;88;20600;-67
2022/02/16 10:55:45;;;;;;;;;;;;;;;0.28;100.00;99231.52;1620532;88;20155;-67
2022/02/16 10:58:13;;;;;;;;;;;;;;;0.37;100.00;99226.39;1618937;87;20721;-68
2022/02/16 11:00:41;;;;;;;;;;;;;;;0.39;100.00;99230.14;1623210;87;21148;-67
2022/02/16 11:03:09;;;;;;;;;;;;;;;0.38;100.00;99224.56;1645459;87;20130;-69
2022/02/16 11:05:52;;;;;;;;;;;;;;;0.42;100.00;99216.05;1614643;88;20159;-67
2022/02/16 11:08:20;;;;;;;;;;;;;;;0.49;100.00;99212.13;1633507;87;20439;-68
2022/02/16 11:10:46;;;;;;;;;;;;;;;0.55;100.00;99208.69;1637258;86;20502;-68
2022/02/16 11:13:18;;;;;;;;;;;;;;;0.62;100.00;99210.85;1652431;86;21134;-69
2022/02/16 11:15:48;;;;;;;;;;;;;;;0.60;100.00;99208.91;1668647;84;20148;-70
2022/02/16 11:18:18;;;;;;;;;;;;;;;0.61;100.00;99222.92;1679416;83;20187;-68
2022/02/16 11:21:05;;;;;;;;;;;;;;;0.62;100.00;99236.45;1697895;83;20205;-66
2022/02/16 11:23:47;;;;;;;;;;;;;;;0.46;100.00;99242.06;1687825;83;20207;-68
2022/02/16 11:26:37;;;;;;;;;;;;;;;0.45;100.00;99240.45;1687612;83;20125;-69
2022/02/16 11:29:24;;;;;;;;;;;;;;;0.44;100.00;99250.17;1682704;83;20162;-69
2022/02/16 11:31:51;;;;;;;;;;;;;;;0.37;100.00;99250.66;1684786;83;20088;-68
2022/02/16 11:34:22;;;;;;;;;;;;;;;0.36;100.00;99236.63;1677929;83;20095;-68
2022/02/16 11:36:58;;;;;;;;;;;;;;;0.38;100.00;99231.97;1677039;85;20135;-67
2022/02/16 11:39:44;;;;;;;;;;;;;;;0.33;100.00;99235.70;1684623;83;21111;-68
2022/02/16 11:42:17;;;;;;;;;;;;;;;0.34;100.00;99222.83;1676030;83;20146;-71
2022/02/16 11:45:02;;;;;;;;;;;;;;;0.40;100.00;99215.95;1650951;86;20181;-68
2022/02/16 11:47:41;;;;;;;;;;;;;;;0.37;100.00;99213.70;1630069;87;20193;-68
2022/02/16 11:50:17;;;;;;;;;;;;;;;0.24;100.00;99203.87;1652089;86;20147;-68
2022/02/16 11:52:58;;;;;;;;;;;;;;;0.15;100.00;99198.46;1620242;87;21315;-68
2022/02/16 11:55:30;;;;;;;;;;;;;;;0.19;100.00;99185.97;1633838;86;20230;-68
2022/02/16 11:58:12;;;;;;;;;;;;;;;0.19;100.00;99179.38;1642159;86;20154;-68
2022/02/16 12:00:39;;;;;;;;;;;;;;;0.17;100.00;99184.06;1598470;86;20242;-68
2022/02/16 12:03:14;;;;;;;;;;;;;;;0.27;100.00;99171.82;1635459;87;20142;-68
2022/02/16 12:06:01;;;;;;;;;;;;;;;0.28;100.00;99186.63;1639831;87;21137;-69
2022/02/16 12:08:36;;;;;;;;;;;;;;;0.31;100.00;99178.31;1641302;87;20250;-69
2022/02/16 12:11:19;;;;;;;;;;;;;;;0.38;100.00;99173.08;1641150;86;20197;-69
2022/02/16 12:13:55;;;;;;;;;;;;;;;0.34;100.00;99152.03;1641664;86;20454;-70
2022/02/16 12:16:25;;;;;;;;;;;;;;;0.36;100.00;99160.06;1633035;86;20210;-68
2022/02/16 12:18:53;;;;;;;;;;;;;;;0.38;100.00;99161.19;1624179;88;21133;-69
2022/02/16 12:21:25;;;;;;;;;;;;;;;0.35;100.00;99160.27;1635699;87;20130;-68
2022/02/16 12:23:59;;;;;;;;;;;;;;;0.39;100.00;99158.84;1619115;87;20110;-69
2022/02/16 12:26:28;;;;;;;;;;;;;;;0.45;100.00;99151.98;1605133;87;20195;-69
2022/02/16 12:28:57;;;;;;;;;;;;;;;0.34;100.00;99158.62;1637586;85;20176;-69
2022/02/16 12:31:25;;;;;;;;;;;;;;;0.31;100.00;99153.75;1611351;88;21042;-69
2022/02/16 12:33:53;;;;;;;;;;;;;;;0.27;100.00;99153.34;1593086;88;20092;-70
2022/02/16 12:36:21;;;;;;;;;;;;;;;0.29;100.00;99143.89;1626498;87;20197;-69
2022/02/16 12:38:48;;;;;;;;;;;;;;;0.26;100.00;99154.33;1625444;88;20351;-69
2022/02/16 12:41:19;;;;;;;;;;;;;;;0.28;100.00;99149.67;1628560;88;20172;-69
2022/02/16 12:44:00;;;;;;;;;;;;;;;0.27;100.00;99148.06;1616055;87;21119;-69
2022/02/16 12:46:45;;;;;;;;;;;;;;;0.24;100.00;99152.39;1646713;86;20201;-70
2022/02/16 13:04:16;;;;;;;;;;;;;;;0.31;100.00;99131.31;1583708;89;20179;-70
2022/02/16 13:07:48;;;;;;;;;;;;;;;0.28;100.00;99129.88;1503714;94;20327;-71